Alapayevsk, Russia
Current Conditions -  °F | °C
As of 10:30 AM on Friday 31 Oct 2014 (Local Time) from USSS Reporting Station
Overcast Overcast  
Wind Chill: 37°   Ceiling: 1900
Heat Index: 41°   Visibility: 6mi
Dew Point: 39°   Wind: 7mph
Humidity: 93%   Direction: 200°SSW
Pressure: 30.03"   Gusts: NA
Location:  57.84°N, 61.69°E
Report Text: USSS 310530Z 20003MPS 9999 BKN019 OVC067 05/04 Q1017 7629//37NOSIG RMK QFE742
Loading
Personal Weather Stations






























Interactive Weather Map
Tropical Storm Tracking
New forecast layout! Learn more

10-Day Weather Forecast

Advertisements
Track Severe Weather on mobile